createdAt,value
2018-04-27T00:02:22.014Z,73.62
2018-04-27T00:04:49.426Z,73.55
2018-04-27T00:07:16.897Z,73.95
2018-04-27T00:09:44.305Z,73.94
2018-04-27T00:12:11.814Z,74.32
2018-04-27T00:14:39.230Z,74.28
2018-04-27T00:17:06.654Z,73.97
2018-04-27T00:19:35.106Z,74.59
2018-04-27T00:22:02.545Z,74.42
2018-04-27T00:24:30.037Z,74.41
2018-04-27T00:26:57.473Z,74.92
2018-04-27T00:29:24.894Z,74.48
2018-04-27T00:31:52.393Z,74.78
2018-04-27T00:34:19.864Z,75.52
2018-04-27T00:36:47.303Z,75.48
2018-04-27T00:39:14.731Z,75.52
2018-04-27T00:41:42.153Z,74.82
2018-04-27T00:44:10.569Z,74.82
2018-04-27T00:46:38.049Z,74.57
2018-04-27T00:49:05.488Z,74.22
2018-04-27T00:51:33.886Z,74.30
2018-04-27T00:54:01.310Z,74.35
2018-04-27T00:56:28.713Z,74.45
2018-04-27T00:58:57.155Z,73.80
2018-04-27T01:01:24.634Z,73.82
2018-04-27T01:03:52.899Z,73.93
2018-04-27T01:06:20.366Z,73.89
2018-04-27T01:08:47.781Z,73.99
2018-04-27T01:11:15.277Z,74.12
2018-04-27T01:13:42.702Z,74.74
2018-04-27T01:16:10.111Z,74.99
2018-04-27T01:18:37.529Z,75.12
2018-04-27T01:21:04.950Z,75.49
2018-04-27T01:23:32.466Z,75.47
2018-04-27T01:25:59.877Z,75.20
2018-04-27T01:28:27.314Z,75.17
2018-04-27T01:30:54.830Z,75.80
2018-04-27T01:33:22.262Z,76.02
2018-04-27T01:35:49.674Z,75.94
2018-04-27T01:38:17.102Z,76.11
2018-04-27T01:40:44.526Z,75.83
2018-04-27T01:43:11.959Z,75.34
2018-04-27T01:45:39.382Z,74.98
2018-04-27T01:48:06.824Z,75.30
2018-04-27T01:50:34.241Z,75.77
2018-04-27T01:53:01.662Z,75.55
2018-04-27T01:55:29.091Z,75.68
2018-04-27T01:57:56.554Z,75.44
2018-04-27T02:00:23.962Z,76.06
2018-04-27T02:02:51.399Z,75.71
2018-04-27T02:05:18.818Z,75.57
2018-04-27T02:07:46.274Z,76.03
2018-04-27T02:10:13.697Z,75.54
2018-04-27T02:12:41.123Z,75.25
2018-04-27T02:15:08.550Z,75.63
2018-04-27T02:17:35.982Z,75.79
2018-04-27T02:20:03.458Z,75.78
2018-04-27T02:22:30.894Z,75.99
2018-04-27T02:24:58.317Z,76.15
2018-04-27T02:27:25.755Z,76.04
2018-04-27T02:29:53.198Z,76.31
2018-04-27T02:32:20.631Z,76.21
2018-04-27T02:34:48.049Z,76.60
2018-04-27T02:37:15.478Z,76.92
2018-04-27T02:39:42.896Z,77.17
2018-04-27T02:42:10.361Z,77.00
2018-04-27T02:44:37.790Z,76.50
2018-04-27T02:47:05.230Z,76.99
2018-04-27T02:49:33.617Z,76.70
2018-04-27T02:52:01.116Z,76.71
2018-04-27T02:54:28.525Z,76.46
2018-04-27T02:56:55.953Z,77.15
2018-04-27T02:59:23.386Z,77.73
2018-04-27T03:01:50.838Z,77.93
2018-04-27T03:04:18.290Z,77.95
2018-04-27T03:06:45.728Z,77.96
2018-04-27T03:09:13.145Z,78.06
2018-04-27T03:11:40.577Z,78.18
2018-04-27T03:14:08.013Z,78.08
2018-04-27T03:16:35.442Z,78.02
2018-04-27T03:19:03.851Z,78.50
2018-04-27T03:21:31.286Z,78.34
2018-04-27T03:23:58.732Z,78.41
2018-04-27T03:26:26.238Z,78.38
2018-04-27T03:28:53.654Z,78.25
2018-04-27T03:31:21.078Z,78.40
2018-04-27T03:33:48.498Z,78.41
2018-04-27T03:36:15.921Z,78.51
2018-04-27T03:38:43.343Z,78.73
2018-04-27T03:41:10.773Z,78.97
2018-04-27T03:43:38.212Z,78.76
2018-04-27T03:46:05.680Z,78.83
2018-04-27T03:48:33.085Z,78.49
2018-04-27T03:51:00.582Z,78.23
2018-04-27T03:53:28.002Z,78.31
2018-04-27T03:55:55.438Z,77.98
2018-04-27T03:58:22.854Z,77.75
2018-04-27T04:01:02.309Z,77.78
2018-04-27T04:03:41.586Z,78.07
2018-04-27T04:06:09.023Z,78.02
2018-04-27T04:08:36.438Z,77.63
2018-04-27T04:11:03.896Z,77.77
2018-04-27T04:13:31.312Z,77.89
2018-04-27T04:15:58.742Z,77.59
2018-04-27T04:18:26.166Z,77.41
2018-04-27T04:20:53.589Z,77.14
2018-04-27T04:23:21.006Z,77.02
2018-04-27T04:25:48.429Z,76.66
2018-04-27T04:28:15.846Z,76.32
2018-04-27T04:30:43.281Z,76.23
2018-04-27T04:33:10.702Z,75.92
2018-04-27T04:35:38.129Z,76.78
2018-04-27T04:38:05.610Z,76.83
2018-04-27T04:40:33.034Z,76.21
2018-04-27T04:43:00.457Z,76.46
2018-04-27T04:45:27.945Z,75.96
2018-04-27T04:47:55.362Z,75.18
2018-04-27T04:50:22.795Z,75.49
2018-04-27T04:52:51.139Z,75.59
2018-04-27T04:55:18.629Z,75.47
2018-04-27T04:57:46.048Z,75.41
2018-04-27T05:00:13.479Z,75.37
2018-04-27T05:02:40.918Z,75.00
2018-04-27T05:05:08.341Z,74.77
2018-04-27T05:07:36.725Z,74.69
2018-04-27T05:10:04.182Z,74.11
2018-04-27T05:12:31.605Z,73.78
2018-04-27T05:14:59.095Z,73.41
2018-04-27T05:17:26.526Z,73.04
2018-04-27T05:19:55.349Z,72.31
2018-04-27T05:22:22.787Z,71.41
2018-04-27T05:24:50.266Z,71.40
2018-04-27T05:27:17.694Z,71.22
2018-04-27T05:29:45.176Z,72.14
2018-04-27T05:32:12.611Z,72.00
2018-04-27T05:34:40.021Z,72.13
2018-04-27T05:37:07.458Z,71.47
2018-04-27T05:39:34.870Z,70.61
2018-04-27T05:42:02.306Z,69.84
2018-04-27T05:44:29.729Z,69.70
2018-04-27T05:46:57.174Z,70.36
2018-04-27T05:49:24.602Z,69.18
2018-04-27T05:51:52.074Z,69.09
2018-04-27T05:54:19.530Z,68.33
2018-04-27T05:56:46.992Z,68.30
2018-04-27T05:59:14.404Z,68.67
2018-04-27T06:01:41.945Z,68.63
2018-04-27T06:04:14.226Z,68.73
2018-04-27T06:06:42.650Z,68.27
2018-04-27T06:09:10.211Z,67.75
2018-04-27T06:11:37.626Z,66.20
2018-04-27T06:14:05.088Z,66.52
2018-04-27T06:16:32.554Z,66.00
2018-04-27T06:18:59.959Z,65.80
2018-04-27T06:21:27.393Z,64.84
2018-04-27T06:23:54.952Z,63.03
2018-04-27T06:26:22.358Z,63.24
2018-04-27T06:28:49.769Z,63.26
2018-04-27T06:31:17.251Z,62.33
2018-04-27T06:33:44.663Z,62.61
2018-04-27T06:36:12.073Z,62.04
2018-04-27T06:38:39.507Z,63.80
2018-04-27T06:41:06.914Z,64.25
2018-04-27T06:43:34.337Z,65.05
2018-04-27T06:46:01.752Z,64.54
2018-04-27T06:48:29.211Z,63.59
2018-04-27T06:50:57.685Z,63.06
2018-04-27T06:53:25.149Z,64.73
2018-04-27T06:55:53.531Z,64.02
2018-04-27T06:58:20.960Z,62.81
2018-04-27T07:00:48.378Z,62.57
2018-04-27T07:03:15.808Z,62.68
2018-04-27T07:05:44.150Z,63.07
2018-04-27T07:08:11.633Z,63.31
2018-04-27T07:10:40.106Z,62.81
2018-04-27T07:13:07.562Z,62.72
2018-04-27T07:15:35.134Z,62.80
2018-04-27T07:18:02.567Z,61.19
2018-04-27T07:20:30.045Z,61.51
2018-04-27T07:22:57.465Z,61.34
2018-04-27T07:25:24.885Z,59.89
2018-04-27T07:27:53.309Z,61.80
2018-04-27T07:30:20.730Z,61.27
2018-04-27T07:32:48.154Z,61.19
2018-04-27T07:35:15.578Z,60.94
2018-04-27T07:37:43.001Z,60.53
2018-04-27T07:40:10.422Z,61.20
2018-04-27T07:42:37.864Z,61.38
2018-04-27T07:45:05.284Z,60.10
2018-04-27T07:47:32.717Z,60.19
2018-04-27T07:50:00.149Z,58.91
2018-04-27T07:52:27.575Z,59.40
2018-04-27T07:54:55.051Z,58.72
2018-04-27T07:57:22.479Z,57.70
2018-04-27T07:59:50.857Z,57.46
2018-04-27T08:02:18.350Z,58.44
2018-04-27T08:04:45.723Z,57.61
2018-04-27T08:07:13.263Z,55.74
2018-04-27T08:09:40.673Z,55.69
2018-04-27T08:12:08.095Z,55.99
2018-04-27T08:14:35.510Z,56.05
2018-04-27T08:17:02.943Z,55.62
2018-04-27T08:19:30.434Z,55.29
2018-04-27T08:21:57.882Z,54.74
2018-04-27T08:24:25.336Z,54.82
2018-04-27T08:26:52.738Z,54.49
2018-04-27T08:29:20.146Z,54.74
2018-04-27T08:31:47.609Z,53.28
2018-04-27T08:34:15.032Z,54.65
2018-04-27T08:36:42.470Z,54.48
2018-04-27T08:39:09.892Z,54.15
2018-04-27T08:41:37.360Z,53.18
2018-04-27T08:44:04.754Z,53.15
2018-04-27T08:46:32.255Z,52.84
2018-04-27T08:48:59.677Z,51.89
2018-04-27T08:51:27.170Z,51.67
2018-04-27T08:53:54.590Z,51.30
2018-04-27T08:56:22.046Z,50.20
2018-04-27T08:58:50.440Z,49.90
2018-04-27T09:01:19.861Z,51.81
2018-04-27T09:03:47.318Z,51.51
2018-04-27T09:06:14.844Z,51.24
2018-04-27T09:08:42.194Z,51.30
2018-04-27T09:11:09.894Z,49.20
2018-04-27T09:13:37.305Z,48.97
2018-04-27T09:16:04.717Z,49.45
2018-04-27T09:18:32.165Z,49.41
2018-04-27T09:20:59.574Z,47.32
2018-04-27T09:23:27.082Z,45.90
2018-04-27T09:25:54.537Z,46.12
2018-04-27T09:28:22.017Z,45.22
2018-04-27T09:30:49.453Z,44.15
2018-04-27T09:33:16.882Z,45.04
2018-04-27T09:35:44.297Z,44.05
2018-04-27T09:38:11.738Z,42.40
2018-04-27T09:40:39.188Z,42.30
2018-04-27T09:43:06.645Z,42.04
2018-04-27T09:45:34.102Z,43.10
2018-04-27T09:48:03.455Z,43.94
2018-04-27T09:50:30.949Z,43.66
2018-04-27T09:52:58.402Z,42.22
2018-04-27T09:55:25.848Z,42.72
2018-04-27T09:57:53.259Z,42.71
2018-04-27T10:00:20.767Z,41.59
2018-04-27T10:02:48.183Z,43.72
2018-04-27T10:05:15.693Z,42.98
2018-04-27T10:07:43.101Z,42.69
2018-04-27T10:10:10.601Z,42.25
2018-04-27T10:12:38.014Z,44.38
2018-04-27T10:15:05.540Z,43.36
2018-04-27T10:17:32.875Z,42.80
2018-04-27T10:20:00.330Z,43.21
2018-04-27T10:22:28.682Z,43.75
2018-04-27T10:24:56.982Z,45.51
2018-04-27T10:27:24.436Z,43.39
2018-04-27T10:29:51.845Z,42.54
2018-04-27T10:32:19.274Z,42.60
2018-04-27T10:34:46.699Z,44.91
2018-04-27T10:37:14.118Z,44.04
2018-04-27T10:39:41.529Z,41.40
2018-04-27T10:42:08.990Z,40.94
2018-04-27T10:44:36.406Z,40.20
2018-04-27T10:47:03.837Z,38.82
2018-04-27T10:49:31.250Z,39.78
2018-04-27T10:51:58.793Z,41.41
2018-04-27T10:54:28.169Z,38.31
2018-04-27T10:56:55.610Z,37.80
2018-04-27T10:59:23.026Z,39.11
2018-04-27T11:01:50.480Z,39.82
2018-04-27T11:04:17.885Z,40.98
2018-04-27T11:06:45.302Z,41.16
2018-04-27T11:09:13.663Z,42.59
2018-04-27T11:11:41.118Z,41.60
2018-04-27T11:14:09.485Z,39.69
2018-04-27T11:16:37.871Z,39.00
2018-04-27T11:19:05.338Z,38.50
2018-04-27T11:21:33.683Z,39.54
2018-04-27T11:24:01.260Z,39.24
2018-04-27T11:26:28.682Z,38.98
2018-04-27T11:28:56.118Z,40.13
2018-04-27T11:31:27.906Z,41.80
2018-04-27T11:33:55.353Z,43.07
2018-04-27T11:36:22.765Z,43.41
2018-04-27T11:38:50.214Z,43.89
2018-04-27T11:41:17.700Z,43.07
2018-04-27T11:43:45.123Z,42.21
2018-04-27T11:46:14.486Z,44.15
2018-04-27T11:48:41.910Z,42.23
2018-04-27T11:51:10.246Z,42.18
2018-04-27T11:53:37.669Z,42.31
2018-04-27T11:56:05.110Z,42.65
2018-04-27T11:58:33.443Z,41.83
2018-04-27T12:01:00.883Z,41.18
2018-04-27T12:03:28.352Z,41.96
2018-04-27T12:05:55.799Z,41.50
2018-04-27T12:08:23.214Z,42.40
2018-04-27T12:10:50.650Z,43.98
2018-04-27T12:13:19.211Z,44.09
2018-04-27T12:15:46.653Z,44.57
2018-04-27T12:18:14.127Z,43.33
2018-04-27T12:20:41.673Z,40.99
2018-04-27T12:23:09.126Z,39.89
2018-04-27T12:25:36.601Z,39.75
2018-04-27T12:28:04.010Z,40.22
2018-04-27T12:30:31.456Z,40.05
2018-04-27T12:32:58.890Z,39.41
2018-04-27T12:35:26.309Z,38.06
2018-04-27T12:37:54.681Z,36.16
2018-04-27T12:40:22.090Z,37.79
2018-04-27T12:42:49.606Z,37.48
2018-04-27T12:45:17.023Z,38.28
2018-04-27T12:47:46.458Z,38.30
2018-04-27T12:50:14.817Z,38.91
2018-04-27T12:52:42.267Z,38.53
2018-04-27T12:55:09.677Z,37.98
2018-04-27T12:57:37.151Z,37.93
2018-04-27T13:00:05.562Z,36.66
2018-04-27T13:02:33.950Z,36.30
2018-04-27T13:05:01.394Z,36.25
2018-04-27T13:07:28.822Z,37.54
2018-04-27T13:09:59.834Z,35.71
2018-04-27T13:12:27.240Z,34.25
2018-04-27T13:14:54.682Z,33.68
2018-04-27T13:17:22.102Z,33.17
2018-04-27T13:19:49.555Z,33.30
2018-04-27T13:22:16.968Z,33.43
2018-04-27T13:24:44.422Z,34.02
2018-04-27T13:27:11.918Z,33.42
2018-04-27T13:29:39.365Z,33.16
2018-04-27T13:32:06.799Z,31.24
2018-04-27T13:34:34.306Z,29.51
2018-04-27T13:37:02.634Z,26.22
2018-04-27T13:39:31.038Z,28.70
2018-04-27T13:41:58.445Z,27.43
2018-04-27T13:44:25.863Z,27.37
2018-04-27T13:46:53.298Z,27.71
2018-04-27T13:49:21.687Z,30.23
2018-04-27T13:51:49.136Z,30.36
2018-04-27T13:54:16.550Z,31.41
2018-04-27T13:56:43.990Z,30.51
2018-04-27T13:59:12.408Z,29.97
2018-04-27T14:01:39.854Z,29.64
2018-04-27T14:04:07.261Z,30.57
2018-04-27T14:06:34.710Z,36.09
2018-04-27T14:09:02.129Z,36.04
2018-04-27T14:11:29.581Z,35.39
2018-04-27T14:13:57.000Z,32.87
2018-04-27T14:16:24.482Z,31.91
2018-04-27T14:18:51.882Z,29.72
2018-04-27T14:21:19.294Z,29.10
2018-04-27T14:23:46.806Z,29.23
2018-04-27T14:26:14.222Z,29.84
2018-04-27T14:28:41.714Z,31.10
2018-04-27T14:31:09.276Z,29.38
2018-04-27T14:33:36.709Z,31.56
2018-04-27T14:36:07.357Z,32.04
2018-04-27T14:38:34.818Z,29.70
2018-04-27T14:41:02.285Z,27.82
2018-04-27T14:43:29.693Z,26.37
2018-04-27T14:45:57.189Z,25.23
2018-04-27T14:48:24.647Z,24.65
2018-04-27T14:50:52.061Z,26.07
2018-04-27T14:53:19.475Z,27.02
2018-04-27T14:55:47.933Z,27.55
2018-04-27T14:58:15.343Z,30.05
2018-04-27T15:00:42.798Z,30.65
2018-04-27T15:03:10.206Z,29.37
2018-04-27T15:05:37.662Z,28.74
2018-04-27T15:08:06.001Z,33.27
2018-04-27T15:10:33.446Z,32.34
2018-04-27T15:13:00.853Z,31.53
2018-04-27T15:15:28.306Z,32.04
2018-04-27T15:17:55.715Z,35.27
2018-04-27T15:20:23.158Z,36.00
2018-04-27T15:22:50.567Z,37.10
2018-04-27T15:25:18.010Z,39.11
2018-04-27T15:27:45.493Z,39.56
2018-04-27T15:30:12.946Z,38.88
2018-04-27T15:32:40.407Z,38.09
2018-04-27T15:35:07.826Z,38.55
2018-04-27T15:37:35.286Z,40.65
2018-04-27T15:40:03.738Z,41.63
2018-04-27T15:42:31.156Z,42.63
2018-04-27T15:44:59.502Z,43.88
2018-04-27T15:47:26.991Z,44.56
2018-04-27T15:49:54.448Z,44.12
2018-04-27T15:52:22.926Z,44.13
2018-04-27T15:54:50.383Z,43.02
2018-04-27T15:57:17.856Z,42.56
2018-04-27T15:59:45.296Z,41.70
2018-04-27T16:02:12.706Z,41.31
2018-04-27T16:04:41.122Z,42.75
2018-04-27T16:07:08.542Z,43.39
2018-04-27T16:09:36.957Z,43.43
2018-04-27T16:12:04.366Z,43.97
2018-04-27T16:14:31.824Z,44.87
2018-04-27T16:16:59.233Z,45.85
2018-04-27T16:19:26.675Z,46.05
2018-04-27T16:21:54.157Z,47.20
2018-04-27T16:24:21.593Z,46.78
2018-04-27T16:26:49.006Z,47.43
2018-04-27T16:29:16.517Z,48.42
2018-04-27T16:31:43.973Z,48.25
2018-04-27T16:34:11.422Z,48.88
2018-04-27T16:36:38.846Z,49.60
2018-04-27T16:39:07.257Z,49.54
2018-04-27T16:41:34.714Z,50.11
2018-04-27T16:44:03.409Z,50.55
2018-04-27T16:46:30.822Z,50.22
2018-04-27T16:48:58.239Z,50.37
2018-04-27T16:51:25.677Z,51.02
2018-04-27T16:53:53.230Z,50.56
2018-04-27T16:56:20.676Z,51.29
2018-04-27T16:58:48.089Z,51.96
2018-04-27T17:01:16.523Z,50.53
2018-04-27T17:03:43.999Z,51.42
2018-04-27T17:06:11.379Z,49.99
2018-04-27T17:08:38.899Z,51.19
2018-04-27T17:11:07.269Z,50.94
2018-04-27T17:13:34.774Z,51.32
2018-04-27T17:16:02.195Z,50.72
2018-04-27T17:18:29.614Z,49.66
2018-04-27T17:20:57.063Z,49.70
2018-04-27T17:23:24.484Z,49.25
2018-04-27T17:25:52.794Z,50.85
2018-04-27T17:28:20.995Z,50.79
2018-04-27T17:30:48.458Z,51.57
2018-04-27T17:33:15.899Z,50.78
2018-04-27T17:35:43.330Z,51.75
2018-04-27T17:38:10.781Z,51.40
2018-04-27T17:40:39.171Z,51.89
2018-04-27T17:43:06.631Z,52.75
2018-04-27T17:45:34.042Z,52.82
2018-04-27T17:48:01.648Z,53.15
2018-04-27T17:50:29.012Z,53.47
2018-04-27T17:52:56.494Z,53.10
2018-04-27T17:55:23.917Z,53.75
2018-04-27T17:57:51.409Z,54.25
2018-04-27T18:00:18.851Z,53.81
2018-04-27T18:02:46.262Z,53.75
2018-04-27T18:05:13.877Z,55.82
2018-04-27T18:07:42.221Z,56.70
2018-04-27T18:10:09.661Z,57.95
2018-04-27T18:12:37.173Z,59.32
2018-04-27T18:15:04.634Z,60.07
2018-04-27T18:17:32.054Z,58.54
2018-04-27T18:19:59.542Z,59.93
2018-04-27T18:22:26.966Z,57.50
2018-04-27T18:24:54.405Z,57.76
2018-04-27T18:27:21.918Z,56.77
2018-04-27T18:29:50.355Z,56.71
2018-04-27T18:32:17.707Z,57.65
2018-04-27T18:34:45.147Z,58.44
2018-04-27T18:37:12.557Z,57.79
2018-04-27T18:39:40.122Z,60.41
2018-04-27T18:42:07.533Z,60.72
2018-04-27T18:44:35.078Z,59.76
2018-04-27T18:47:02.494Z,61.27
2018-04-27T18:49:29.910Z,61.60
2018-04-27T18:51:57.349Z,61.38
2018-04-27T18:54:24.766Z,63.69
2018-04-27T18:56:52.212Z,64.37
2018-04-27T18:59:19.625Z,62.91
2018-04-27T19:01:47.066Z,64.04
2018-04-27T19:04:15.329Z,65.30
2018-04-27T19:06:42.769Z,65.00
2018-04-27T19:09:10.217Z,65.14
2018-04-27T19:11:37.663Z,64.57
2018-04-27T19:14:05.130Z,64.99
2018-04-27T19:16:33.514Z,64.46
2018-04-27T19:19:01.840Z,64.66
2018-04-27T19:21:30.264Z,66.54
2018-04-27T19:23:57.682Z,67.22
2018-04-27T19:26:25.137Z,68.73
2018-04-27T19:28:52.562Z,67.51
2018-04-27T19:31:20.002Z,70.48
2018-04-27T19:33:47.450Z,71.20
2018-04-27T19:36:14.904Z,69.51
2018-04-27T19:38:42.357Z,68.70
2018-04-27T19:41:09.781Z,69.75
2018-04-27T19:43:38.134Z,69.04
2018-04-27T19:46:05.650Z,69.05
2018-04-27T19:48:33.107Z,68.02
2018-04-27T19:51:00.565Z,68.50
2018-04-27T19:53:28.014Z,68.41
2018-04-27T19:55:55.485Z,68.83
2018-04-27T19:58:22.945Z,69.60
2018-04-27T20:00:50.373Z,69.23
2018-04-27T20:03:17.818Z,68.50
2018-04-27T20:05:47.325Z,68.45
2018-04-27T20:08:15.829Z,69.36
2018-04-27T20:10:44.024Z,69.09
2018-04-27T20:13:12.388Z,68.78
2018-04-27T20:15:39.815Z,69.53
2018-04-27T20:18:11.950Z,69.82
2018-04-27T20:20:39.469Z,68.64
2018-04-27T20:23:08.815Z,69.13
2018-04-27T20:25:36.324Z,70.35
2018-04-27T20:28:05.734Z,70.66
2018-04-27T20:30:33.185Z,70.72
2018-04-27T20:33:00.603Z,71.77
2018-04-27T20:35:28.052Z,68.76
2018-04-27T20:38:02.183Z,69.47
2018-04-27T20:40:29.669Z,69.47
2018-04-27T20:42:57.087Z,69.68
2018-04-27T20:45:24.534Z,69.87
2018-04-27T20:47:51.953Z,69.52
2018-04-27T20:50:23.798Z,69.59
2018-04-27T20:52:51.210Z,70.78
2018-04-27T20:55:18.653Z,70.13
2018-04-27T20:57:47.399Z,71.28
2018-04-27T21:00:14.845Z,70.94
2018-04-27T21:02:43.738Z,71.71
2018-04-27T21:05:11.490Z,72.33
2018-04-27T21:07:38.913Z,71.53
2018-04-27T21:10:06.335Z,72.09
2018-04-27T21:12:33.782Z,71.91
2018-04-27T21:15:05.754Z,71.14
2018-04-27T21:17:33.314Z,71.61
2018-04-27T21:20:00.754Z,71.87
2018-04-27T21:22:28.198Z,72.08
2018-04-27T21:24:55.695Z,72.71
2018-04-27T21:27:23.122Z,73.39
2018-04-27T21:29:50.566Z,73.80
2018-04-27T21:32:18.038Z,74.12
2018-04-27T21:34:45.487Z,74.65
2018-04-27T21:37:12.947Z,73.66
2018-04-27T21:39:40.370Z,73.38
2018-04-27T21:42:13.367Z,73.56
2018-04-27T21:44:43.505Z,73.01
2018-04-27T21:50:03.665Z,72.54
2018-04-27T21:52:31.125Z,72.36
2018-04-27T21:54:58.719Z,71.54
2018-04-27T21:57:28.675Z,72.32
2018-04-27T22:00:03.679Z,72.37
2018-04-27T22:05:50.722Z,72.38
2018-04-27T22:08:24.023Z,72.54
2018-04-27T22:10:54.074Z,73.23
2018-04-27T22:13:22.338Z,72.89
2018-04-27T22:15:49.783Z,73.75
2018-04-27T22:18:17.209Z,73.59
2018-04-27T22:20:47.275Z,73.94
2018-04-27T22:23:15.262Z,73.33
2018-04-27T22:25:48.185Z,72.70
2018-04-27T22:28:21.534Z,73.28
2018-04-27T22:30:49.706Z,73.31
2018-04-27T22:33:22.622Z,73.35
2018-04-27T22:42:01.490Z,75.71
2018-04-27T22:47:28.970Z,75.20
2018-04-27T22:49:56.446Z,74.68
2018-04-27T22:52:23.871Z,75.51
2018-04-27T22:54:55.977Z,74.77
2018-04-27T22:57:36.218Z,74.78
2018-04-27T23:00:04.938Z,74.95
2018-04-27T23:02:33.366Z,75.65
2018-04-27T23:05:01.674Z,75.97
2018-04-27T23:07:30.070Z,76.07
2018-04-27T23:09:57.494Z,75.78
2018-04-27T23:12:36.687Z,76.09
2018-04-27T23:15:06.858Z,76.16
2018-04-27T23:17:34.324Z,76.39
2018-04-27T23:23:10.480Z,76.61
2018-04-27T23:25:46.320Z,76.60
2018-04-27T23:28:13.761Z,76.29
2018-04-27T23:30:42.917Z,76.55
2018-04-27T23:33:11.074Z,76.07
2018-04-27T23:35:38.530Z,76.11
2018-04-27T23:38:06.082Z,75.27
2018-04-27T23:40:33.506Z,74.70
2018-04-27T23:43:00.966Z,74.32
2018-04-27T23:45:30.189Z,73.89
2018-04-27T23:47:58.606Z,73.74
2018-04-27T23:50:26.029Z,73.25
2018-04-27T23:52:53.478Z,72.43
2018-04-27T23:55:20.926Z,72.53
2018-04-27T23:57:48.347Z,73.43
